createdAt,value
2023-04-03T00:00:36.754Z,98967.47
2023-04-03T00:03:03.503Z,98970.44
2023-04-03T00:05:30.288Z,98970.13
2023-04-03T00:07:56.834Z,98966.66
2023-04-03T00:10:23.457Z,98969.38
2023-04-03T00:12:49.962Z,98974.28
2023-04-03T00:15:16.539Z,98974.72
2023-04-03T00:17:43.167Z,98973.53
2023-04-03T00:20:10.069Z,98978.47
2023-04-03T00:22:36.596Z,98978.13
2023-04-03T00:25:04.129Z,98987.44
2023-04-03T00:27:30.675Z,98988.91
2023-04-03T00:29:57.107Z,98989.72
2023-04-03T00:32:23.612Z,98996.34
2023-04-03T00:34:50.306Z,99000.41
2023-04-03T00:37:16.780Z,98997.31
2023-04-03T00:39:43.243Z,98990.13
2023-04-03T00:42:09.725Z,98995.69
2023-04-03T00:44:36.156Z,98997.50
2023-04-03T00:47:08.106Z,99001.81
2023-04-03T00:49:35.296Z,98998.72
2023-04-03T00:52:02.602Z,98991.00
2023-04-03T00:54:29.129Z,98991.81
2023-04-03T00:56:57.599Z,99003.16
2023-04-03T00:59:31.261Z,99007.50
2023-04-03T01:01:58.201Z,99004.41
2023-04-03T01:04:39.522Z,99006.25
2023-04-03T01:07:16.334Z,99007.44
2023-04-03T01:09:44.085Z,99012.41
2023-04-03T01:12:38.681Z,99010.38
2023-04-03T01:15:08.774Z,99013.25
2023-04-03T01:17:51.476Z,99007.31
2023-04-03T01:20:34.019Z,99009.41
2023-04-03T01:23:09.993Z,99011.06
2023-04-03T01:25:39.292Z,99011.50
2023-04-03T01:28:08.400Z,99015.38
2023-04-03T01:30:42.300Z,99013.94
2023-04-03T01:33:08.909Z,99018.69
2023-04-03T01:35:35.455Z,99017.69
2023-04-03T01:38:02.007Z,99023.22
2023-04-03T01:40:28.477Z,99018.31
2023-04-03T01:42:54.915Z,99015.63
2023-04-03T01:45:21.400Z,99019.72
2023-04-03T01:47:47.894Z,99022.41
2023-04-03T01:50:14.517Z,99031.44
2023-04-03T01:52:41.016Z,99030.59
2023-04-03T01:55:07.885Z,99034.31
2023-04-03T01:57:34.403Z,99035.31
2023-04-03T02:00:00.999Z,99035.13
2023-04-03T02:02:27.513Z,99042.31
2023-04-03T02:04:54.192Z,99038.84
2023-04-03T02:07:20.697Z,99040.03
2023-04-03T02:09:47.225Z,99042.09
2023-04-03T02:12:13.729Z,99031.00
2023-04-03T02:14:40.400Z,99039.44
2023-04-03T02:17:09.638Z,99042.91
2023-04-03T02:19:36.731Z,99033.47
2023-04-03T02:22:06.351Z,99034.69
2023-04-03T02:24:33.042Z,99036.56
2023-04-03T02:26:59.965Z,99046.22
2023-04-03T02:29:26.588Z,99046.63
2023-04-03T02:31:53.122Z,99040.88
2023-04-03T02:34:19.600Z,99044.97
2023-04-03T02:36:46.165Z,99044.13
2023-04-03T02:39:12.694Z,99042.91
2023-04-03T02:41:39.138Z,99044.19
2023-04-03T02:44:07.421Z,99038.16
2023-04-03T02:46:34.778Z,99042.69
2023-04-03T02:49:01.410Z,99044.13
2023-04-03T02:51:27.929Z,99044.69
2023-04-03T02:53:54.565Z,99052.69
2023-04-03T02:56:21.452Z,99048.56
2023-04-03T02:58:48.041Z,99049.41
2023-04-03T03:01:14.897Z,99046.34
2023-04-03T03:03:41.412Z,99044.06
2023-04-03T03:06:14.185Z,99045.09
2023-04-03T03:08:41.074Z,99048.19
2023-04-03T03:11:07.645Z,99049.81
2023-04-03T03:13:35.336Z,99036.28
2023-04-03T03:16:02.303Z,99047.75
2023-04-03T03:18:29.133Z,99054.53
2023-04-03T03:20:58.201Z,99062.34
2023-04-03T03:23:27.064Z,99056.41
2023-04-03T03:25:58.344Z,99060.88
2023-04-03T03:28:25.385Z,99060.63
2023-04-03T03:30:52.148Z,99055.28
2023-04-03T03:33:19.578Z,99053.44
2023-04-03T03:35:46.199Z,99056.72
2023-04-03T03:38:13.181Z,99054.47
2023-04-03T03:40:39.819Z,99052.97
2023-04-03T03:43:06.500Z,99057.13
2023-04-03T03:45:33.122Z,99056.91
2023-04-03T03:47:59.676Z,99057.13
2023-04-03T03:50:26.227Z,99058.56
2023-04-03T03:52:52.694Z,99063.72
2023-04-03T03:55:19.354Z,99064.31
2023-04-03T03:57:46.002Z,99060.22
2023-04-03T04:00:12.898Z,99068.44
2023-04-03T04:02:39.530Z,99069.03
2023-04-03T04:05:06.435Z,99063.09
2023-04-03T04:07:32.963Z,99070.88
2023-04-03T04:09:59.421Z,99065.16
2023-04-03T04:12:26.142Z,99075.88
2023-04-03T04:14:52.647Z,99065.97
2023-04-03T04:17:20.794Z,99064.72
2023-04-03T04:19:47.313Z,99067.75
2023-04-03T04:22:13.821Z,99073.16
2023-04-03T04:24:40.319Z,99063.91
2023-04-03T04:27:06.862Z,99067.19
2023-04-03T04:29:36.721Z,99074.34
2023-04-03T04:32:04.756Z,99073.16
2023-04-03T04:34:31.593Z,99069.03
2023-04-03T04:36:58.244Z,99075.63
2023-04-03T04:39:24.787Z,99069.25
2023-04-03T04:41:51.418Z,99068.84
2023-04-03T04:44:17.885Z,99066.72
2023-04-03T04:46:44.374Z,99067.38
2023-04-03T04:49:11.060Z,99073.75
2023-04-03T04:51:48.315Z,99066.78
2023-04-03T04:54:18.948Z,99073.94
2023-04-03T04:56:45.542Z,99073.09
2023-04-03T04:59:12.030Z,99080.31
2023-04-03T05:01:38.617Z,99083.78
2023-04-03T05:04:05.583Z,99078.63
2023-04-03T05:06:33.081Z,99084.22
2023-04-03T05:09:00.224Z,99081.16
2023-04-03T05:11:27.185Z,99086.31
2023-04-03T05:13:53.775Z,99087.84
2023-04-03T05:16:20.315Z,99082.97
2023-04-03T05:18:46.936Z,99080.25
2023-04-03T05:21:13.662Z,99090.91
2023-04-03T05:23:40.189Z,99084.25
2023-04-03T05:26:06.888Z,99095.34
2023-04-03T05:28:34.044Z,99085.66
2023-04-03T05:31:00.708Z,99089.16
2023-04-03T05:33:27.690Z,99094.50
2023-04-03T05:35:55.656Z,99095.69
2023-04-03T05:38:22.564Z,99089.97
2023-04-03T05:40:49.055Z,99088.31
2023-04-03T05:43:15.885Z,99098.59
2023-04-03T05:45:43.626Z,99092.63
2023-04-03T05:48:11.540Z,99096.88
2023-04-03T05:50:42.421Z,99099.31
2023-04-03T05:53:17.414Z,99093.41
2023-04-03T05:55:43.902Z,99083.38
2023-04-03T05:58:11.748Z,99105.09
2023-04-03T06:00:38.535Z,99091.25
2023-04-03T06:03:05.261Z,99097.50
2023-04-03T06:05:32.038Z,99096.81
2023-04-03T06:07:58.741Z,99099.47
2023-04-03T06:10:25.310Z,99098.00
2023-04-03T06:12:52.344Z,99097.50
2023-04-03T06:15:19.004Z,99099.41
2023-04-03T06:17:45.758Z,99106.97
2023-04-03T06:20:13.319Z,99104.72
2023-04-03T06:22:40.377Z,99104.72
2023-04-03T06:25:07.410Z,99113.28
2023-04-03T06:27:33.951Z,99108.44
2023-04-03T06:30:00.572Z,99109.69
2023-04-03T06:32:27.570Z,99110.88
2023-04-03T06:34:54.589Z,99118.63
2023-04-03T06:37:23.381Z,99113.09
2023-04-03T06:39:49.961Z,99115.78
2023-04-03T06:42:17.160Z,99106.31
2023-04-03T06:44:43.705Z,99118.47
2023-04-03T06:47:17.618Z,99121.41
2023-04-03T06:49:44.690Z,99123.66
2023-04-03T06:52:13.141Z,99123.84
2023-04-03T06:54:41.065Z,99124.69
2023-04-03T06:57:08.625Z,99129.84
2023-04-03T06:59:36.001Z,99130.81
2023-04-03T07:02:02.591Z,99132.28
2023-04-03T07:04:29.325Z,99115.50
2023-04-03T07:06:55.852Z,99126.19
2023-04-03T07:09:22.625Z,99136.63
2023-04-03T07:11:49.279Z,99128.25
2023-04-03T07:14:15.924Z,99133.44
2023-04-03T07:16:42.848Z,99126.63
2023-04-03T07:19:09.998Z,99127.22
2023-04-03T07:21:36.802Z,99137.06
2023-04-03T07:24:03.703Z,99131.69
2023-04-03T07:26:30.251Z,99137.47
2023-04-03T07:28:57.109Z,99143.03
2023-04-03T07:31:24.078Z,99135.00
2023-04-03T07:33:50.980Z,99140.34
2023-04-03T07:36:20.439Z,99143.28
2023-04-03T07:38:47.018Z,99142.66
2023-04-03T07:41:16.827Z,99142.84
2023-04-03T07:43:43.351Z,99144.06
2023-04-03T07:46:10.381Z,99145.31
2023-04-03T07:48:37.236Z,99143.69
2023-04-03T07:51:05.105Z,99139.78
2023-04-03T07:53:32.336Z,99145.91
2023-04-03T07:55:59.733Z,99137.63
2023-04-03T07:58:26.711Z,99145.44
2023-04-03T08:00:53.414Z,99148.91
2023-04-03T08:03:20.125Z,99143.84
2023-04-03T08:05:49.414Z,99145.28
2023-04-03T08:08:21.182Z,99147.97
2023-04-03T08:10:55.001Z,99147.63
2023-04-03T08:13:21.619Z,99153.88
2023-04-03T08:15:48.599Z,99149.66
2023-04-03T08:18:16.982Z,99153.94
2023-04-03T08:20:44.037Z,99155.19
2023-04-03T08:23:11.392Z,99148.63
2023-04-03T08:25:42.370Z,99156.44
2023-04-03T08:28:10.089Z,99159.72
2023-04-03T08:30:37.146Z,99158.50
2023-04-03T08:33:04.954Z,99159.94
2023-04-03T08:35:31.689Z,99160.34
2023-04-03T08:37:58.325Z,99170.44
2023-04-03T08:40:25.565Z,99165.50
2023-04-03T08:43:20.435Z,99173.94
2023-04-03T08:45:52.703Z,99166.72
2023-04-03T08:48:30.492Z,99173.31
2023-04-03T08:51:12.195Z,99176.81
2023-04-03T08:53:43.287Z,99166.28
2023-04-03T08:56:11.119Z,99167.13
2023-04-03T08:58:48.786Z,99170.84
2023-04-03T09:01:22.375Z,99170.59
2023-04-03T09:03:48.991Z,99170.00
2023-04-03T09:06:31.557Z,99175.13
2023-04-03T09:09:22.928Z,99184.59
2023-04-03T09:12:01.306Z,99167.94
2023-04-03T09:14:38.099Z,99178.66
2023-04-03T09:17:14.891Z,99165.47
2023-04-03T09:20:03.279Z,99172.28
2023-04-03T09:22:36.491Z,99171.28
2023-04-03T09:25:14.841Z,99178.44
2023-04-03T09:27:41.395Z,99167.56
2023-04-03T09:30:17.970Z,99173.31
2023-04-03T09:32:50.947Z,99170.84
2023-04-03T09:35:36.451Z,99170.00
2023-04-03T09:38:14.279Z,99168.53
2023-04-03T09:40:52.469Z,99163.94
2023-04-03T09:43:28.444Z,99167.03
2023-04-03T09:45:56.599Z,99167.22
2023-04-03T09:48:26.333Z,99171.34
2023-04-03T09:50:56.624Z,99162.91
2023-04-03T09:53:31.152Z,99166.22
2023-04-03T09:55:58.004Z,99164.91
2023-04-03T09:58:36.054Z,99166.97
2023-04-03T10:01:34.811Z,99162.00
2023-04-03T10:04:07.330Z,99172.38
2023-04-03T10:06:41.703Z,99159.59
2023-04-03T10:09:22.123Z,99165.94
2023-04-03T10:11:59.253Z,99153.03
2023-04-03T10:14:26.261Z,99164.75
2023-04-03T10:17:04.497Z,99157.13
2023-04-03T10:19:37.738Z,99164.94
2023-04-03T10:22:36.597Z,99157.28
2023-04-03T10:25:15.773Z,99158.47
2023-04-03T10:28:07.413Z,99153.88
2023-04-03T10:30:41.540Z,99161.59
2023-04-03T10:33:23.295Z,99158.31
2023-04-03T10:36:02.055Z,99160.00
2023-04-03T10:38:49.547Z,99153.53
2023-04-03T10:41:30.046Z,99155.47
2023-04-03T10:44:08.403Z,99155.19
2023-04-03T10:46:54.685Z,99150.38
2023-04-03T10:49:32.339Z,99150.22
2023-04-03T10:52:13.984Z,99134.72
2023-04-03T10:55:19.241Z,99145.13
2023-04-03T10:57:47.292Z,99146.88
2023-04-03T11:00:20.826Z,99140.56
2023-04-03T11:03:01.172Z,99135.53
2023-04-03T11:05:35.417Z,99142.75
2023-04-03T11:08:14.567Z,99131.84
2023-04-03T11:10:45.897Z,99122.19
2023-04-03T11:13:21.646Z,99127.34
2023-04-03T11:15:48.963Z,99126.22
2023-04-03T11:18:38.719Z,99121.53
2023-04-03T11:21:13.894Z,99125.41
2023-04-03T11:23:49.493Z,99114.31
2023-04-03T11:26:23.743Z,99110.78
2023-04-03T11:29:02.717Z,99111.72
2023-04-03T11:31:44.385Z,99109.88
2023-04-03T11:34:37.177Z,99106.25
2023-04-03T11:37:13.843Z,99110.00
2023-04-03T11:39:48.969Z,99101.09
2023-04-03T11:42:26.580Z,99102.56
2023-04-03T11:45:25.635Z,99102.28
2023-04-03T11:48:30.544Z,99107.94
2023-04-03T11:50:58.840Z,99096.75
2023-04-03T11:53:40.253Z,99096.75
2023-04-03T11:56:24.821Z,99094.53
2023-04-03T11:59:13.218Z,99087.13
2023-04-03T12:01:53.753Z,99099.56
2023-04-03T12:04:26.930Z,99089.66
2023-04-03T12:07:13.566Z,99094.19
2023-04-03T12:09:57.278Z,99083.28
2023-04-03T12:12:28.709Z,99089.72
2023-04-03T12:14:55.378Z,99097.03
2023-04-03T12:17:27.766Z,99084.28
2023-04-03T12:19:54.415Z,99088.88
2023-04-03T12:22:22.280Z,99092.56
2023-04-03T12:24:53.701Z,99087.66
2023-04-03T12:27:35.695Z,99084.59
2023-04-03T12:30:02.284Z,99085.72
2023-04-03T12:32:44.006Z,99082.38
2023-04-03T12:35:22.700Z,99070.59
2023-04-03T12:38:16.821Z,99064.69
2023-04-03T12:40:43.223Z,99073.00
2023-04-03T12:43:24.643Z,99072.97
2023-04-03T12:46:04.810Z,99069.97
2023-04-03T12:48:48.415Z,99079.53
2023-04-03T12:51:18.517Z,99072.34
2023-04-03T12:53:46.248Z,99073.03
2023-04-03T12:56:26.327Z,99063.06
2023-04-03T12:58:54.768Z,99055.03
2023-04-03T13:01:27.722Z,99070.06
2023-04-03T13:03:59.340Z,99053.75
2023-04-03T13:06:32.089Z,99055.38
2023-04-03T13:09:05.073Z,99057.56
2023-04-03T13:11:37.209Z,99063.94
2023-04-03T13:14:06.899Z,99058.59
2023-04-03T13:16:34.710Z,99059.19
2023-04-03T13:19:01.540Z,99058.44
2023-04-03T13:21:31.389Z,99047.69
2023-04-03T13:24:13.996Z,99054.69
2023-04-03T13:26:42.189Z,99061.41
2023-04-03T13:29:29.816Z,99052.91
2023-04-03T13:31:59.540Z,99051.00
2023-04-03T13:34:30.249Z,99053.22
2023-04-03T13:37:01.478Z,99052.97
2023-04-03T13:39:33.966Z,99051.19
2023-04-03T13:42:15.063Z,99043.28
2023-04-03T13:44:41.981Z,99048.16
2023-04-03T13:47:11.778Z,99041.22
2023-04-03T13:49:47.510Z,99044.56
2023-04-03T13:52:32.110Z,99048.06
2023-04-03T13:57:54.503Z,99040.97
2023-04-03T14:00:30.348Z,99049.78
2023-04-03T14:02:57.999Z,99037.13
2023-04-03T14:05:27.567Z,99045.13
2023-04-03T14:07:56.347Z,99043.44
2023-04-03T14:10:23.300Z,99036.16
2023-04-03T14:12:51.706Z,99034.56
2023-04-03T14:15:24.611Z,99033.97
2023-04-03T14:17:54.806Z,99033.22
2023-04-03T14:20:24.772Z,99028.47
2023-04-03T14:22:52.267Z,99025.94
2023-04-03T14:25:20.306Z,99021.16
2023-04-03T14:27:49.929Z,99028.16
2023-04-03T14:30:23.813Z,99020.63
2023-04-03T14:32:50.969Z,99028.81
2023-04-03T14:35:19.713Z,99029.00
2023-04-03T14:37:47.090Z,99023.22
2023-04-03T14:40:20.925Z,99018.56
2023-04-03T14:42:49.534Z,99018.03
2023-04-03T14:45:17.502Z,99025.03
2023-04-03T14:47:49.895Z,99013.13
2023-04-03T14:50:22.212Z,99009.00
2023-04-03T14:52:49.999Z,99002.66
2023-04-03T14:55:19.163Z,99010.88
2023-04-03T14:57:46.238Z,99010.28
2023-04-03T15:00:18.248Z,99007.75
2023-04-03T15:02:46.002Z,99011.09
2023-04-03T15:05:13.648Z,99012.06
2023-04-03T15:07:43.284Z,99017.44
2023-04-03T15:10:28.616Z,99013.28
2023-04-03T15:12:55.690Z,99016.41
2023-04-03T15:15:23.554Z,99007.38
2023-04-03T15:17:55.315Z,99005.81
2023-04-03T15:20:25.074Z,99014.00
2023-04-03T15:22:51.746Z,99003.88
2023-04-03T15:25:19.210Z,99012.47
2023-04-03T15:27:45.956Z,99007.84
2023-04-03T15:30:16.677Z,99009.00
2023-04-03T15:32:43.557Z,99004.94
2023-04-03T15:35:10.428Z,99004.28
2023-04-03T15:37:37.183Z,99012.94
2023-04-03T15:40:05.974Z,99009.38
2023-04-03T15:42:32.645Z,99014.34
2023-04-03T15:44:59.657Z,99019.56
2023-04-03T15:47:27.819Z,99027.13
2023-04-03T15:49:55.969Z,99010.84
2023-04-03T15:52:22.530Z,99017.53
2023-04-03T15:54:49.020Z,99015.25
2023-04-03T15:57:15.552Z,99005.25
2023-04-03T15:59:42.127Z,99007.97
2023-04-03T16:02:11.293Z,99012.72
2023-04-03T16:04:37.814Z,99005.72
2023-04-03T16:07:05.274Z,99006.38
2023-04-03T16:09:35.249Z,99011.91
2023-04-03T16:12:02.957Z,99006.34
2023-04-03T16:14:31.218Z,99013.47
2023-04-03T16:16:59.766Z,99017.28
2023-04-03T16:19:26.488Z,99019.00
2023-04-03T16:21:54.822Z,99013.53
2023-04-03T16:24:21.395Z,99015.75
2023-04-03T16:26:47.894Z,99013.78
2023-04-03T16:29:14.384Z,99009.59
2023-04-03T16:31:41.155Z,99019.69
2023-04-03T16:34:07.734Z,99018.81
2023-04-03T16:36:34.257Z,99016.31
2023-04-03T16:39:00.747Z,99021.50
2023-04-03T16:41:27.268Z,99017.28
2023-04-03T16:43:53.856Z,99016.53
2023-04-03T16:46:20.509Z,99022.19
2023-04-03T16:48:47.047Z,99021.38
2023-04-03T16:51:14.371Z,99012.50
2023-04-03T16:53:40.934Z,99011.53
2023-04-03T16:56:07.430Z,99018.41
2023-04-03T16:58:33.921Z,99013.72
2023-04-03T17:01:10.110Z,99018.50
2023-04-03T17:03:36.669Z,99028.97
2023-04-03T17:06:03.349Z,99018.06
2023-04-03T17:08:29.856Z,99022.22
2023-04-03T17:10:56.544Z,99023.03
2023-04-03T17:13:23.124Z,99030.47
2023-04-03T17:15:49.874Z,99029.66
2023-04-03T17:18:16.519Z,99031.28
2023-04-03T17:20:43.045Z,99027.44
2023-04-03T17:23:09.605Z,99030.97
2023-04-03T17:25:36.191Z,99028.56
2023-04-03T17:28:02.759Z,99026.44
2023-04-03T17:30:29.197Z,99025.22
2023-04-03T17:32:55.800Z,99023.75
2023-04-03T17:35:22.297Z,99024.84
2023-04-03T17:37:50.527Z,99026.25
2023-04-03T17:40:18.734Z,99029.34
2023-04-03T17:42:45.609Z,99018.69
2023-04-03T17:45:12.219Z,99021.97
2023-04-03T17:47:38.750Z,99021.31
2023-04-03T17:50:06.046Z,99031.19
2023-04-03T17:52:32.573Z,99023.63
2023-04-03T17:54:59.052Z,99026.06
2023-04-03T17:57:25.652Z,99029.97
2023-04-03T17:59:53.987Z,99026.31
2023-04-03T18:02:20.824Z,99032.44
2023-04-03T18:04:47.341Z,99030.59
2023-04-03T18:07:13.867Z,99036.78
2023-04-03T18:09:41.299Z,99040.03
2023-04-03T18:12:09.882Z,99032.84
2023-04-03T18:14:38.113Z,99035.53
2023-04-03T18:17:04.781Z,99033.84
2023-04-03T18:19:31.891Z,99035.09
2023-04-03T18:22:03.091Z,99030.41
2023-04-03T18:24:33.325Z,99038.22
2023-04-03T18:27:22.116Z,99039.66
2023-04-03T18:29:52.188Z,99043.97
2023-04-03T18:32:20.524Z,99038.84
2023-04-03T18:34:47.190Z,99039.66
2023-04-03T18:37:15.148Z,99040.06
2023-04-03T18:39:41.877Z,99046.66
2023-04-03T18:42:11.922Z,99048.28
2023-04-03T18:44:40.828Z,99044.38
2023-04-03T18:47:08.214Z,99045.84
2023-04-03T18:49:37.753Z,99041.09
2023-04-03T18:52:04.710Z,99051.19
2023-04-03T18:54:32.063Z,99050.75
2023-04-03T18:56:59.114Z,99052.63
2023-04-03T18:59:25.895Z,99054.88
2023-04-03T19:01:52.536Z,99051.16
2023-04-03T19:04:19.055Z,99054.63
2023-04-03T19:06:45.713Z,99052.53
2023-04-03T19:09:12.299Z,99056.66
2023-04-03T19:11:38.827Z,99053.94
2023-04-03T19:14:16.247Z,99063.84
2023-04-03T19:16:44.935Z,99067.19
2023-04-03T19:19:12.130Z,99066.72
2023-04-03T19:21:41.292Z,99058.75
2023-04-03T19:24:10.960Z,99062.34
2023-04-03T19:26:37.954Z,99062.59
2023-04-03T19:29:04.810Z,99065.06
2023-04-03T19:31:33.419Z,99068.56
2023-04-03T19:34:00.951Z,99066.31
2023-04-03T19:36:27.484Z,99063.47
2023-04-03T19:38:54.044Z,99073.31
2023-04-03T19:41:23.625Z,99068.75
2023-04-03T19:43:55.854Z,99067.34
2023-04-03T19:46:24.485Z,99063.41
2023-04-03T19:48:51.244Z,99062.75
2023-04-03T19:51:18.439Z,99067.50
2023-04-03T19:53:45.231Z,99065.81
2023-04-03T19:56:11.826Z,99070.34
2023-04-03T19:58:39.450Z,99061.34
2023-04-03T20:01:05.953Z,99062.16
2023-04-03T20:03:32.681Z,99064.19
2023-04-03T20:05:59.220Z,99061.53
2023-04-03T20:08:28.352Z,99064.19
2023-04-03T20:10:56.073Z,99063.28
2023-04-03T20:13:22.642Z,99059.63
2023-04-03T20:15:49.217Z,99067.38
2023-04-03T20:18:20.482Z,99061.09
2023-04-03T20:20:58.511Z,99056.72
2023-04-03T20:23:28.142Z,99060.41
2023-04-03T20:26:08.670Z,99060.84
2023-04-03T20:28:38.318Z,99056.31
2023-04-03T20:31:05.359Z,99059.16
2023-04-03T20:33:32.020Z,99057.84
2023-04-03T20:35:58.817Z,99064.59
2023-04-03T20:38:25.649Z,99053.78
2023-04-03T20:40:52.487Z,99054.22
2023-04-03T20:43:19.622Z,99056.47
2023-04-03T20:45:46.112Z,99052.34
2023-04-03T20:48:13.189Z,99057.84
2023-04-03T20:50:41.255Z,99056.69
2023-04-03T20:53:08.932Z,99051.75
2023-04-03T20:55:35.570Z,99053.53
2023-04-03T20:58:02.252Z,99050.38
2023-04-03T21:00:29.549Z,99051.88
2023-04-03T21:02:57.852Z,99052.63
2023-04-03T21:05:26.276Z,99051.59
2023-04-03T21:08:32.029Z,99041.78
2023-04-03T21:11:36.471Z,99054.88
2023-04-03T21:14:42.456Z,99043.28
2023-04-03T21:17:08.921Z,99043.09
2023-04-03T21:19:40.142Z,99036.22
2023-04-03T21:22:06.945Z,99037.22
2023-04-03T21:24:33.497Z,99029.88
2023-04-03T21:26:59.974Z,99032.44
2023-04-03T21:29:26.500Z,99035.97
2023-04-03T21:31:57.797Z,99026.78
2023-04-03T21:34:27.625Z,99029.00
2023-04-03T21:36:55.459Z,99026.81
2023-04-03T21:39:23.096Z,99030.06
2023-04-03T21:41:52.009Z,99028.09
2023-04-03T21:44:20.293Z,99022.75
2023-04-03T21:46:48.023Z,99033.03
2023-04-03T21:49:14.964Z,99028.91
2023-04-03T21:51:42.330Z,99026.22
2023-04-03T21:54:09.250Z,99025.56
2023-04-03T21:56:35.801Z,99028.91
2023-04-03T21:59:05.449Z,99027.84
2023-04-03T22:01:32.475Z,99023.97
2023-04-03T22:03:59.581Z,99028.94
2023-04-03T22:06:26.561Z,99035.78
2023-04-03T22:08:53.238Z,99032.06
2023-04-03T22:11:22.965Z,99032.44
2023-04-03T22:13:52.431Z,99025.91
2023-04-03T22:16:19.392Z,99033.16
2023-04-03T22:18:46.058Z,99035.53
2023-04-03T22:21:12.578Z,99034.66
2023-04-03T22:23:39.581Z,99032.94
2023-04-03T22:26:08.078Z,99035.44
2023-04-03T22:28:45.873Z,99031.59
2023-04-03T22:31:14.228Z,99035.81
2023-04-03T22:33:42.249Z,99032.13
2023-04-03T22:36:10.759Z,99031.75
2023-04-03T22:38:38.911Z,99023.28
2023-04-03T22:41:07.229Z,99016.59
2023-04-03T22:43:36.470Z,99023.09
2023-04-03T22:46:05.111Z,99029.06
2023-04-03T22:48:31.959Z,99014.75
2023-04-03T22:50:59.977Z,99023.38
2023-04-03T22:53:29.526Z,99016.94
2023-04-03T22:56:01.150Z,99022.50
2023-04-03T22:58:28.917Z,99022.72
2023-04-03T23:01:04.242Z,99022.50
2023-04-03T23:03:30.813Z,99025.28
2023-04-03T23:05:57.472Z,99015.56
2023-04-03T23:08:24.177Z,99016.66
2023-04-03T23:10:55.662Z,99027.84
2023-04-03T23:13:22.992Z,99027.06
2023-04-03T23:15:56.800Z,99019.97
2023-04-03T23:18:23.806Z,99013.13
2023-04-03T23:20:55.050Z,99023.78
2023-04-03T23:23:23.586Z,99021.00
2023-04-03T23:25:53.684Z,99019.34
2023-04-03T23:28:20.888Z,99017.31
2023-04-03T23:30:48.216Z,99026.06
2023-04-03T23:33:15.123Z,99016.28
2023-04-03T23:35:46.697Z,99026.94
2023-04-03T23:38:13.723Z,99019.97
2023-04-03T23:40:41.990Z,99022.63
2023-04-03T23:43:08.875Z,99026.75
2023-04-03T23:45:35.744Z,99025.19
2023-04-03T23:48:02.310Z,99020.22
2023-04-03T23:50:28.824Z,99019.31
2023-04-03T23:52:55.544Z,99028.31
2023-04-03T23:55:22.129Z,99025.72
2023-04-03T23:57:48.641Z,99026.16
